createdAt,value
2023-05-15T00:00:04.109Z,11.1
2023-05-15T00:01:10.391Z,11.1
2023-05-15T00:02:15.680Z,11.1
2023-05-15T00:03:21.954Z,11.1
2023-05-15T00:04:28.215Z,11.1
2023-05-15T00:05:34.536Z,11.1
2023-05-15T00:06:40.855Z,11.1
2023-05-15T00:07:47.061Z,11.1
2023-05-15T00:08:53.305Z,11.1
2023-05-15T00:09:59.588Z,11.1
2023-05-15T00:11:05.839Z,11.1
2023-05-15T00:12:12.215Z,11.1
2023-05-15T00:13:18.495Z,11.1
2023-05-15T00:14:24.730Z,11.1
2023-05-15T00:15:30.984Z,11
2023-05-15T00:16:36.305Z,11
2023-05-15T00:17:42.488Z,10.9
2023-05-15T00:18:48.781Z,10.9
2023-05-15T00:19:55.034Z,10.9
2023-05-15T00:21:01.374Z,10.9
2023-05-15T00:22:07.586Z,10.9
2023-05-15T00:23:13.854Z,10.9
2023-05-15T00:24:20.119Z,10.9
2023-05-15T00:25:26.635Z,10.9
2023-05-15T00:26:32.841Z,10.9
2023-05-15T00:27:39.010Z,10.9
2023-05-15T00:28:45.216Z,10.8
2023-05-15T00:29:51.504Z,10.8
2023-05-15T00:30:56.782Z,10.8
2023-05-15T00:32:03.072Z,10.8
2023-05-15T00:33:09.320Z,10.8
2023-05-15T00:34:15.601Z,10.8
2023-05-15T00:35:22.174Z,10.8
2023-05-15T00:36:28.223Z,10.8
2023-05-15T00:37:34.473Z,10.8
2023-05-15T00:38:40.783Z,10.8
2023-05-15T00:39:47.120Z,10.8
2023-05-15T00:40:53.319Z,10.8
2023-05-15T00:41:59.543Z,10.8
2023-05-15T00:43:05.813Z,10.7
2023-05-15T00:44:12.065Z,10.7
2023-05-15T00:45:17.325Z,10.8
2023-05-15T00:46:23.781Z,10.8
2023-05-15T00:47:29.915Z,10.8
2023-05-15T00:48:36.150Z,10.8
2023-05-15T00:49:42.435Z,10.8
2023-05-15T00:50:48.689Z,10.8
2023-05-15T00:51:54.962Z,10.8
2023-05-15T00:53:01.353Z,10.8
2023-05-15T00:54:07.512Z,10.8
2023-05-15T00:55:13.769Z,10.8
2023-05-15T00:56:20.156Z,10.8
2023-05-15T00:57:26.375Z,10.8
2023-05-15T00:58:32.731Z,10.7
2023-05-15T00:59:37.890Z,10.7
2023-05-15T01:00:44.157Z,10.7
2023-05-15T01:01:50.431Z,10.7
2023-05-15T01:02:56.708Z,10.7
2023-05-15T01:04:02.986Z,10.7
2023-05-15T01:05:09.302Z,10.6
2023-05-15T01:06:15.512Z,10.7
2023-05-15T01:07:21.780Z,10.7
2023-05-15T01:08:28.074Z,10.6
2023-05-15T01:09:34.332Z,10.6
2023-05-15T01:10:40.624Z,10.6
2023-05-15T01:11:46.872Z,10.5
2023-05-15T01:12:53.179Z,10.6
2023-05-15T01:13:58.443Z,10.5
2023-05-15T01:15:04.745Z,10.5
2023-05-15T01:16:11.048Z,10.5
2023-05-15T01:17:17.318Z,10.6
2023-05-15T01:18:23.519Z,10.6
2023-05-15T01:19:29.867Z,10.6
2023-05-15T01:20:36.069Z,10.6
2023-05-15T01:21:42.349Z,10.6
2023-05-15T01:22:48.631Z,10.6
2023-05-15T01:23:54.906Z,10.6
2023-05-15T01:25:01.156Z,10.6
2023-05-15T01:26:07.588Z,10.6
2023-05-15T01:27:13.691Z,10.6
2023-05-15T01:28:18.999Z,10.6
2023-05-15T01:29:25.324Z,10.6
2023-05-15T01:30:31.655Z,10.6
2023-05-15T01:31:37.803Z,10.6
2023-05-15T01:32:44.072Z,10.6
2023-05-15T01:33:50.363Z,10.6
2023-05-15T01:34:56.695Z,10.6
2023-05-15T01:36:02.950Z,10.6
2023-05-15T01:37:09.186Z,10.6
2023-05-15T01:38:15.476Z,10.6
2023-05-15T01:39:21.703Z,10.6
2023-05-15T01:40:28.037Z,10.6
2023-05-15T01:41:34.259Z,10.6
2023-05-15T01:42:39.572Z,10.6
2023-05-15T01:43:45.811Z,10.6
2023-05-15T01:44:52.084Z,10.6
2023-05-15T01:45:58.381Z,10.6
2023-05-15T01:47:04.622Z,10.6
2023-05-15T01:48:10.888Z,10.6
2023-05-15T01:49:16.204Z,10.5
2023-05-15T01:50:22.455Z,10.5
2023-05-15T01:51:28.732Z,10.5
2023-05-15T01:52:35.064Z,10.5
2023-05-15T01:53:41.299Z,10.5
2023-05-15T01:54:47.550Z,10.5
2023-05-15T01:55:53.902Z,10.5
2023-05-15T01:57:00.229Z,10.5
2023-05-15T01:58:06.365Z,10.5
2023-05-15T01:59:12.639Z,10.4
2023-05-15T02:00:18.963Z,10.4
2023-05-15T02:01:25.169Z,10.4
2023-05-15T02:02:31.462Z,10.4
2023-05-15T02:03:36.761Z,10.4
2023-05-15T02:04:43.013Z,10.4
2023-05-15T02:05:49.479Z,10.3
2023-05-15T02:06:55.665Z,10.3
2023-05-15T02:08:01.841Z,10.3
2023-05-15T02:09:08.094Z,10.2
2023-05-15T02:10:14.517Z,10.2
2023-05-15T02:11:20.650Z,10.2
2023-05-15T02:12:26.951Z,10.2
2023-05-15T02:13:33.180Z,10.2
2023-05-15T02:14:39.458Z,10.2
2023-05-15T02:15:45.737Z,10.2
2023-05-15T02:16:52.003Z,10.2
2023-05-15T02:17:57.284Z,10.2
2023-05-15T02:19:03.577Z,10.2
2023-05-15T02:20:09.850Z,10.2
2023-05-15T02:21:16.099Z,10.1
2023-05-15T02:22:22.381Z,10.1
2023-05-15T02:23:28.679Z,10.1
2023-05-15T02:24:34.957Z,10.1
2023-05-15T02:25:41.310Z,10.1
2023-05-15T02:26:47.519Z,10.1
2023-05-15T02:27:53.851Z,10.1
2023-05-15T02:29:00.131Z,10.1
2023-05-15T02:30:06.325Z,10
2023-05-15T02:31:12.648Z,10
2023-05-15T02:32:17.905Z,10
2023-05-15T02:33:24.164Z,10
2023-05-15T02:34:30.398Z,10
2023-05-15T02:35:36.658Z,10
2023-05-15T02:36:43.087Z,10
2023-05-15T02:37:49.239Z,9.9
2023-05-15T02:38:55.504Z,9.9
2023-05-15T02:40:01.774Z,9.9
2023-05-15T02:41:08.029Z,9.9
2023-05-15T02:42:14.297Z,9.9
2023-05-15T02:43:20.585Z,9.9
2023-05-15T02:44:26.889Z,9.9
2023-05-15T02:45:33.110Z,9.9
2023-05-15T02:46:38.397Z,9.9
2023-05-15T02:47:44.673Z,9.9
2023-05-15T02:48:51.020Z,9.8
2023-05-15T02:49:57.219Z,9.8
2023-05-15T02:51:03.507Z,9.8
2023-05-15T02:52:09.772Z,9.7
2023-05-15T02:53:16.034Z,9.7
2023-05-15T02:54:22.293Z,9.7
2023-05-15T02:55:28.590Z,9.6
2023-05-15T02:56:34.837Z,9.6
2023-05-15T02:57:41.137Z,9.6
2023-05-15T02:58:47.384Z,9.7
2023-05-15T02:59:53.703Z,9.7
2023-05-15T03:00:58.946Z,9.6
2023-05-15T03:02:05.211Z,9.6
2023-05-15T03:03:11.485Z,9.6
2023-05-15T03:04:17.753Z,9.5
2023-05-15T03:05:24.189Z,9.5
2023-05-15T03:06:30.359Z,9.4
2023-05-15T03:07:36.586Z,9.4
2023-05-15T03:08:42.901Z,9.4
2023-05-15T03:09:49.123Z,9.4
2023-05-15T03:10:55.397Z,9.4
2023-05-15T03:12:01.657Z,9.4
2023-05-15T03:13:07.931Z,9.4
2023-05-15T03:14:14.196Z,9.5
2023-05-15T03:15:19.489Z,9.4
2023-05-15T03:16:25.760Z,9.4
2023-05-15T03:17:32.041Z,9.4
2023-05-15T03:18:38.307Z,9.4
2023-05-15T03:19:44.569Z,9.4
2023-05-15T03:20:50.865Z,9.4
2023-05-15T03:21:57.210Z,9.4
2023-05-15T03:23:03.394Z,9.3
2023-05-15T03:24:09.709Z,9.3
2023-05-15T03:25:16.074Z,9.3
2023-05-15T03:26:22.273Z,9.3
2023-05-15T03:27:28.473Z,9.3
2023-05-15T03:28:34.762Z,9.3
2023-05-15T03:29:40.047Z,9.3
2023-05-15T03:30:46.330Z,9.3
2023-05-15T03:31:52.629Z,9.3
2023-05-15T03:32:58.970Z,9.3
2023-05-15T03:34:05.174Z,9.3
2023-05-15T03:35:11.520Z,9.3
2023-05-15T03:36:17.686Z,9.3
2023-05-15T03:37:24.006Z,9.3
2023-05-15T03:38:30.305Z,9.3
2023-05-15T03:39:36.572Z,9.3
2023-05-15T03:40:42.781Z,9.4
2023-05-15T03:41:49.032Z,9.3
2023-05-15T03:42:55.361Z,9.3
2023-05-15T03:44:00.614Z,9.3
2023-05-15T03:45:06.866Z,9.3
2023-05-15T03:46:13.144Z,9.3
2023-05-15T03:47:19.467Z,9.3
2023-05-15T03:48:25.692Z,9.3
2023-05-15T03:49:32.074Z,9.3
2023-05-15T03:50:38.277Z,9.3
2023-05-15T03:51:44.549Z,9.3
2023-05-15T03:52:50.784Z,9.3
2023-05-15T03:53:57.122Z,9.3
2023-05-15T03:55:03.307Z,9.3
2023-05-15T03:56:09.751Z,9.3
2023-05-15T03:57:16.027Z,9.3
2023-05-15T03:58:21.282Z,9.3
2023-05-15T03:59:27.557Z,9.3
2023-05-15T04:00:33.851Z,9.3
2023-05-15T04:01:40.120Z,9.3
2023-05-15T04:02:46.383Z,9.3
2023-05-15T04:03:52.485Z,9.3
2023-05-15T04:04:58.981Z,9.3
2023-05-15T04:06:05.038Z,9.3
2023-05-15T04:07:11.531Z,9.3
2023-05-15T04:08:17.736Z,9.3
2023-05-15T04:09:24.009Z,9.3
2023-05-15T04:10:30.309Z,9.3
2023-05-15T04:11:36.551Z,9.4
2023-05-15T04:12:41.869Z,9.3
2023-05-15T04:13:48.098Z,9.4
2023-05-15T04:14:54.401Z,9.4
2023-05-15T04:16:00.575Z,9.4
2023-05-15T04:17:06.944Z,9.4
2023-05-15T04:18:13.080Z,9.4
2023-05-15T04:19:19.436Z,9.4
2023-05-15T04:20:25.758Z,9.4
2023-05-15T04:21:32.068Z,9.4
2023-05-15T04:22:38.227Z,9.3
2023-05-15T04:23:44.557Z,9.4
2023-05-15T04:24:50.755Z,9.4
2023-05-15T04:25:57.115Z,9.4
2023-05-15T04:27:02.333Z,9.4
2023-05-15T04:28:08.654Z,9.4
2023-05-15T04:29:14.868Z,9.4
2023-05-15T04:30:21.145Z,9.4
2023-05-15T04:31:27.468Z,9.4
2023-05-15T04:32:33.865Z,9.4
2023-05-15T04:33:40.030Z,9.4
2023-05-15T04:34:46.323Z,9.4
2023-05-15T04:35:52.532Z,9.4
2023-05-15T04:36:58.827Z,9.4
2023-05-15T04:38:05.040Z,9.4
2023-05-15T04:39:11.380Z,9.4
2023-05-15T04:40:17.537Z,9.4
2023-05-15T04:41:22.906Z,9.3
2023-05-15T04:42:29.063Z,9.3
2023-05-15T04:43:35.377Z,9.4
2023-05-15T04:44:41.626Z,9.4
2023-05-15T04:45:47.986Z,9.4
2023-05-15T04:46:54.155Z,9.4
2023-05-15T04:48:00.422Z,9.4
2023-05-15T04:49:06.820Z,9.5
2023-05-15T04:50:13.076Z,9.5
2023-05-15T04:51:19.374Z,9.5
2023-05-15T04:52:25.697Z,9.5
2023-05-15T04:53:31.800Z,9.6
2023-05-15T04:54:38.085Z,9.6
2023-05-15T04:55:43.412Z,9.6
2023-05-15T04:56:49.720Z,9.6
2023-05-15T04:57:55.972Z,9.6
2023-05-15T04:59:02.302Z,9.6
2023-05-15T05:00:08.462Z,9.7
2023-05-15T05:01:14.774Z,9.7
2023-05-15T05:02:21.104Z,9.7
2023-05-15T05:03:27.243Z,9.7
2023-05-15T05:04:33.561Z,9.7
2023-05-15T05:05:39.930Z,9.8
2023-05-15T05:06:46.165Z,9.8
2023-05-15T05:07:52.325Z,9.8
2023-05-15T05:08:58.741Z,9.8
2023-05-15T05:10:04.963Z,9.8
2023-05-15T05:11:10.170Z,9.8
2023-05-15T05:12:16.539Z,9.9
2023-05-15T05:13:22.838Z,9.9
2023-05-15T05:14:29.112Z,10
2023-05-15T05:15:35.252Z,10
2023-05-15T05:16:41.715Z,10
2023-05-15T05:17:47.848Z,10
2023-05-15T05:18:54.079Z,10.1
2023-05-15T05:20:00.468Z,10.1
2023-05-15T05:21:06.661Z,10.1
2023-05-15T05:22:12.944Z,10.1
2023-05-15T05:23:19.257Z,10.2
2023-05-15T05:24:25.464Z,10.2
2023-05-15T05:25:30.797Z,10.2
2023-05-15T05:26:37.020Z,10.3
2023-05-15T05:27:43.375Z,10.3
2023-05-15T05:28:49.581Z,10.2
2023-05-15T05:29:55.973Z,10.2
2023-05-15T05:31:01.231Z,10.2
2023-05-15T05:32:07.497Z,10.2
2023-05-15T05:33:13.718Z,10.2
2023-05-15T05:34:20.063Z,10.2
2023-05-15T05:35:26.372Z,10.2
2023-05-15T05:36:32.575Z,10.2
2023-05-15T05:37:38.764Z,10.2
2023-05-15T05:38:45.164Z,10.3
2023-05-15T05:39:51.455Z,10.3
2023-05-15T05:40:57.676Z,10.3
2023-05-15T05:42:03.904Z,10.4
2023-05-15T05:43:10.187Z,10.4
2023-05-15T05:44:16.386Z,10.4
2023-05-15T05:45:21.722Z,10.5
2023-05-15T05:46:27.992Z,10.5
2023-05-15T05:47:34.200Z,10.5
2023-05-15T05:48:40.532Z,10.5
2023-05-15T05:49:46.822Z,10.5
2023-05-15T05:50:53.067Z,10.6
2023-05-15T05:51:59.394Z,10.6
2023-05-15T05:53:05.578Z,10.6
2023-05-15T05:54:11.824Z,10.6
2023-05-15T05:55:18.212Z,10.5
2023-05-15T05:56:24.367Z,10.6
2023-05-15T05:57:30.792Z,10.6
2023-05-15T05:58:37.014Z,10.6
2023-05-15T05:59:42.216Z,10.6
2023-05-15T06:00:48.560Z,10.6
2023-05-15T06:01:54.824Z,10.6
2023-05-15T06:03:01.019Z,10.6
2023-05-15T06:04:07.396Z,10.7
2023-05-15T06:05:13.726Z,10.7
2023-05-15T06:06:19.915Z,10.7
2023-05-15T06:07:26.211Z,10.7
2023-05-15T06:08:32.531Z,10.7
2023-05-15T06:09:38.703Z,10.8
2023-05-15T06:10:45.033Z,10.8
2023-05-15T06:11:51.228Z,10.9
2023-05-15T06:12:57.471Z,10.9
2023-05-15T06:14:02.841Z,10.9
2023-05-15T06:15:09.058Z,10.9
2023-05-15T06:16:15.429Z,10.9
2023-05-15T06:17:21.632Z,11
2023-05-15T06:18:27.913Z,11
2023-05-15T06:19:34.169Z,11
2023-05-15T06:20:40.394Z,11
2023-05-15T06:21:46.645Z,11
2023-05-15T06:22:52.970Z,11
2023-05-15T06:23:59.190Z,11.1
2023-05-15T06:25:05.470Z,11.1
2023-05-15T06:26:11.783Z,11.1
2023-05-15T06:27:18.075Z,11.2
2023-05-15T06:28:23.299Z,11.2
2023-05-15T06:29:29.668Z,11.3
2023-05-15T06:30:35.878Z,11.3
2023-05-15T06:31:42.153Z,11.4
2023-05-15T06:32:48.528Z,11.4
2023-05-15T06:33:54.771Z,11.4
2023-05-15T06:35:01.125Z,11.5
2023-05-15T06:36:07.374Z,11.5
2023-05-15T06:37:13.628Z,11.6
2023-05-15T06:38:19.901Z,11.6
2023-05-15T06:39:26.146Z,11.7
2023-05-15T06:40:32.446Z,11.7
2023-05-15T06:41:38.744Z,11.7
2023-05-15T06:42:44.053Z,11.8
2023-05-15T06:43:50.303Z,11.7
2023-05-15T06:44:56.476Z,11.8
2023-05-15T06:46:02.688Z,11.8
2023-05-15T06:47:09.115Z,11.7
2023-05-15T06:48:15.348Z,11.7
2023-05-15T06:49:21.656Z,11.7
2023-05-15T06:50:27.956Z,11.7
2023-05-15T06:51:34.174Z,11.7
2023-05-15T06:52:40.421Z,11.7
2023-05-15T06:53:46.787Z,11.8
2023-05-15T06:54:52.840Z,11.9
2023-05-15T06:55:59.248Z,12
2023-05-15T06:57:04.409Z,12.1
2023-05-15T06:58:10.853Z,12.3
2023-05-15T06:59:17.117Z,12.4
2023-05-15T07:00:23.387Z,12.5
2023-05-15T07:01:29.593Z,12.6
2023-05-15T07:02:35.942Z,12.6
2023-05-15T07:03:42.147Z,12.6
2023-05-15T07:04:48.514Z,12.7
2023-05-15T07:05:54.752Z,12.7
2023-05-15T07:07:01.053Z,12.7
2023-05-15T07:08:07.130Z,12.7
2023-05-15T07:09:13.564Z,12.8
2023-05-15T07:10:19.658Z,12.8
2023-05-15T07:11:25.031Z,12.8
2023-05-15T07:12:31.318Z,12.9
2023-05-15T07:13:37.655Z,12.8
2023-05-15T07:14:43.888Z,12.9
2023-05-15T07:15:50.044Z,13
2023-05-15T07:16:56.384Z,13
2023-05-15T07:18:02.622Z,13.1
2023-05-15T07:19:08.869Z,13.1
2023-05-15T07:20:15.203Z,13.2
2023-05-15T07:21:21.493Z,13.3
2023-05-15T07:22:27.767Z,13.3
2023-05-15T07:23:33.993Z,13.4
2023-05-15T07:24:40.230Z,13.5
2023-05-15T07:25:45.593Z,13.5
2023-05-15T07:26:51.789Z,13.6
2023-05-15T07:27:58.043Z,13.6
2023-05-15T07:29:04.352Z,13.7
2023-05-15T07:30:10.611Z,13.8
2023-05-15T07:31:17.023Z,13.8
2023-05-15T07:32:23.283Z,13.9
2023-05-15T07:33:29.624Z,13.9
2023-05-15T07:34:35.778Z,13.9
2023-05-15T07:35:42.056Z,14
2023-05-15T07:36:48.280Z,14.1
2023-05-15T07:37:54.663Z,14.1
2023-05-15T07:39:00.946Z,14.1
2023-05-15T07:40:06.149Z,14.2
2023-05-15T07:41:12.411Z,14.2
2023-05-15T07:42:18.624Z,14.2
2023-05-15T07:43:24.874Z,14.3
2023-05-15T07:44:31.291Z,14.2
2023-05-15T07:45:37.457Z,14.3
2023-05-15T07:46:43.680Z,14.3
2023-05-15T07:47:50.062Z,14.3
2023-05-15T07:48:56.328Z,14.3
2023-05-15T07:50:02.589Z,14.3
2023-05-15T07:51:08.767Z,14.3
2023-05-15T07:52:15.085Z,14.3
2023-05-15T07:53:21.516Z,14.2
2023-05-15T07:54:27.789Z,14.2
2023-05-15T07:55:34.028Z,14.2
2023-05-15T07:56:39.306Z,14.2
2023-05-15T07:57:45.582Z,14.2
2023-05-15T07:58:51.794Z,14.2
2023-05-15T07:59:58.121Z,14.3
2023-05-15T08:01:04.375Z,14.3
2023-05-15T08:02:10.573Z,14.3
2023-05-15T08:03:16.799Z,14.2
2023-05-15T08:04:23.164Z,14.2
2023-05-15T08:05:29.332Z,14.3
2023-05-15T08:06:35.615Z,14.2
2023-05-15T08:07:41.975Z,14.3
2023-05-15T08:08:48.139Z,14.3
2023-05-15T08:09:54.425Z,14.3
2023-05-15T08:10:59.814Z,14.3
2023-05-15T08:12:05.966Z,14.3
2023-05-15T08:13:12.270Z,14.4
2023-05-15T08:14:18.577Z,14.5
2023-05-15T08:15:24.839Z,14.5
2023-05-15T08:16:31.106Z,14.6
2023-05-15T08:17:37.399Z,14.7
2023-05-15T08:18:43.702Z,14.8
2023-05-15T08:19:49.981Z,14.8
2023-05-15T08:20:56.248Z,14.9
2023-05-15T08:22:02.502Z,15
2023-05-15T08:23:08.701Z,15
2023-05-15T08:24:14.998Z,15
2023-05-15T08:25:20.252Z,15.1
2023-05-15T08:26:26.603Z,15.1
2023-05-15T08:27:32.809Z,15.1
2023-05-15T08:28:39.104Z,15.1
2023-05-15T08:29:45.373Z,15.1
2023-05-15T08:30:51.657Z,15.1
2023-05-15T08:31:58.016Z,15
2023-05-15T08:33:04.231Z,15
2023-05-15T08:34:10.447Z,15
2023-05-15T08:35:16.723Z,14.9
2023-05-15T08:36:22.982Z,14.9
2023-05-15T08:37:29.315Z,14.9
2023-05-15T08:38:35.586Z,14.9
2023-05-15T08:39:40.827Z,15
2023-05-15T08:40:47.117Z,14.9
2023-05-15T08:41:53.350Z,14.9
2023-05-15T08:42:59.630Z,15
2023-05-15T08:44:05.897Z,15
2023-05-15T08:45:12.148Z,15.1
2023-05-15T08:46:18.457Z,15.1
2023-05-15T08:47:24.767Z,15.1
2023-05-15T08:48:31.016Z,15.2
2023-05-15T08:49:37.251Z,15.2
2023-05-15T08:50:43.546Z,15.2
2023-05-15T08:51:49.934Z,15.2
2023-05-15T08:52:56.147Z,15.2
2023-05-15T08:54:01.465Z,15.2
2023-05-15T08:55:07.667Z,15.2
2023-05-15T08:56:14.055Z,15.3
2023-05-15T08:57:20.216Z,15.3
2023-05-15T08:58:26.482Z,15.3
2023-05-15T08:59:32.760Z,15.3
2023-05-15T09:00:39.031Z,15.3
2023-05-15T09:01:45.362Z,15.3
2023-05-15T09:02:51.712Z,15.3
2023-05-15T09:03:57.879Z,15.4
2023-05-15T09:05:04.096Z,15.4
2023-05-15T09:06:10.435Z,15.4
2023-05-15T09:07:16.709Z,15.5
2023-05-15T09:08:22.962Z,15.5
2023-05-15T09:09:28.168Z,15.6
2023-05-15T09:10:34.453Z,15.6
2023-05-15T09:11:40.844Z,15.7
2023-05-15T09:12:46.016Z,15.7
2023-05-15T09:13:52.315Z,15.8
2023-05-15T09:14:58.642Z,15.9
2023-05-15T09:16:04.914Z,16
2023-05-15T09:17:11.268Z,16.1
2023-05-15T09:18:17.541Z,16.3
2023-05-15T09:19:23.787Z,16.5
2023-05-15T09:20:29.943Z,16.7
2023-05-15T09:21:36.344Z,16.9
2023-05-15T09:22:42.482Z,17
2023-05-15T09:23:48.764Z,17.1
2023-05-15T09:24:55.047Z,17.1
2023-05-15T09:26:01.457Z,17.1
2023-05-15T09:27:07.596Z,17
2023-05-15T09:28:13.836Z,16.9
2023-05-15T09:29:19.142Z,16.8
2023-05-15T09:30:25.383Z,16.6
2023-05-15T09:31:31.749Z,16.5
2023-05-15T09:32:37.980Z,16.3
2023-05-15T09:33:44.237Z,16.2
2023-05-15T09:34:50.529Z,16.2
2023-05-15T09:35:56.774Z,16.1
2023-05-15T09:37:03.026Z,16
2023-05-15T09:38:09.428Z,16
2023-05-15T09:39:15.564Z,16.1
2023-05-15T09:40:21.828Z,16.2
2023-05-15T09:41:28.096Z,16.4
2023-05-15T09:42:34.505Z,16.6
2023-05-15T09:44:46.059Z,16.7
2023-05-15T09:45:52.380Z,16.9
2023-05-15T09:46:58.635Z,17.1
2023-05-15T09:48:04.994Z,17.3
2023-05-15T09:49:11.009Z,17.5
2023-05-15T09:50:17.293Z,17.7
2023-05-15T09:51:23.717Z,17.9
2023-05-15T09:52:29.835Z,18.1
2023-05-15T09:53:36.174Z,18.3
2023-05-15T09:54:42.391Z,18.4
2023-05-15T09:55:48.813Z,18.3
2023-05-15T09:56:55.036Z,18.3
2023-05-15T09:58:00.291Z,18.2
2023-05-15T09:59:06.545Z,18.1
2023-05-15T10:00:12.749Z,18.2
2023-05-15T10:01:19.051Z,18.2
2023-05-15T10:02:25.361Z,18.1
2023-05-15T10:03:31.710Z,18.2
2023-05-15T10:04:37.839Z,18.4
2023-05-15T10:05:44.137Z,18.6
2023-05-15T10:06:50.474Z,18.8
2023-05-15T10:07:56.749Z,19
2023-05-15T10:09:02.956Z,19.2
2023-05-15T10:10:09.221Z,19.2
2023-05-15T10:11:15.461Z,19.2
2023-05-15T10:12:20.760Z,19
2023-05-15T10:13:27.081Z,19
2023-05-15T10:14:33.311Z,18.9
2023-05-15T10:15:39.600Z,18.8
2023-05-15T10:16:45.879Z,18.8
2023-05-15T10:17:52.117Z,18.7
2023-05-15T10:18:58.477Z,18.6
2023-05-15T10:20:04.662Z,18.6
2023-05-15T10:21:10.989Z,18.5
2023-05-15T10:22:17.196Z,18.5
2023-05-15T10:23:23.489Z,18.5
2023-05-15T10:24:29.794Z,18.5
2023-05-15T10:25:36.027Z,18.5
2023-05-15T10:26:41.328Z,18.7
2023-05-15T10:27:47.645Z,18.8
2023-05-15T10:28:53.995Z,18.9
2023-05-15T10:30:00.125Z,18.9
2023-05-15T10:31:06.493Z,18.9
2023-05-15T10:32:12.808Z,18.9
2023-05-15T10:33:19.071Z,18.9
2023-05-15T10:34:25.261Z,18.7
2023-05-15T10:35:31.484Z,18.5
2023-05-15T10:36:37.795Z,18.5
2023-05-15T10:37:44.050Z,18.5
2023-05-15T10:38:50.348Z,18.4
2023-05-15T10:39:56.569Z,18.5
2023-05-15T10:41:01.892Z,18.6
2023-05-15T10:42:08.139Z,18.8
2023-05-15T10:43:14.401Z,18.9
2023-05-15T10:44:20.691Z,19.1
2023-05-15T10:45:26.974Z,19.3
2023-05-15T10:46:33.217Z,19.4
2023-05-15T10:47:39.479Z,19.6
2023-05-15T10:48:45.767Z,19.7
2023-05-15T10:49:52.056Z,19.6
2023-05-15T10:50:58.302Z,19.5
2023-05-15T10:52:04.597Z,19.4
2023-05-15T10:53:10.850Z,19.2
2023-05-15T10:54:17.150Z,18.9
2023-05-15T10:55:22.566Z,18
2023-05-15T10:56:28.685Z,17.5
2023-05-15T10:57:34.961Z,17
2023-05-15T10:58:41.261Z,16.7
2023-05-15T10:59:47.564Z,16.6
2023-05-15T11:00:53.765Z,16.5
2023-05-15T11:02:00.099Z,16.5
2023-05-15T11:03:06.375Z,16.2
2023-05-15T11:04:12.601Z,16.1
2023-05-15T11:05:19.007Z,16.1
2023-05-15T11:06:25.123Z,16
2023-05-15T11:07:31.546Z,16.1
2023-05-15T11:08:37.939Z,16.1
2023-05-15T11:09:42.965Z,16.2
2023-05-15T11:10:49.387Z,16.2
2023-05-15T11:11:55.598Z,16.3
2023-05-15T11:13:01.921Z,16.5
2023-05-15T11:14:08.207Z,16.6
2023-05-15T11:15:14.434Z,16.7
2023-05-15T11:17:26.994Z,16.8
2023-05-15T11:18:33.296Z,16.8
2023-05-15T11:19:39.538Z,16.9
2023-05-15T11:20:45.870Z,16.7
2023-05-15T11:21:52.051Z,16.9
2023-05-15T11:22:58.373Z,17.1
2023-05-15T11:24:03.682Z,17.3
2023-05-15T11:25:09.952Z,17.3
2023-05-15T11:26:16.111Z,17.3
2023-05-15T11:27:22.377Z,17.4
2023-05-15T11:28:28.709Z,17.5
2023-05-15T11:29:35.044Z,17.5
2023-05-15T11:30:41.298Z,17.7
2023-05-15T11:31:47.448Z,18
2023-05-15T11:32:53.804Z,18.1
2023-05-15T11:34:00.093Z,18.2
2023-05-15T11:35:06.328Z,18.3
2023-05-15T11:36:12.533Z,18.2
2023-05-15T11:37:18.773Z,17.9
2023-05-15T11:38:24.152Z,17.8
2023-05-15T11:39:30.426Z,17.6
2023-05-15T11:40:36.732Z,17.7
2023-05-15T11:41:43.003Z,17.8
2023-05-15T11:42:49.310Z,17.8
2023-05-15T11:43:55.576Z,18
2023-05-15T11:45:01.792Z,18
2023-05-15T11:46:08.126Z,18
2023-05-15T11:47:14.233Z,17.9
2023-05-15T11:48:20.628Z,17.9
2023-05-15T11:49:26.838Z,17.7
2023-05-15T11:50:33.045Z,17.8
2023-05-15T11:51:39.422Z,17.8
2023-05-15T11:52:44.657Z,17.9
2023-05-15T11:53:50.991Z,18
2023-05-15T11:54:57.179Z,18.2
2023-05-15T11:56:03.553Z,18.5
2023-05-15T11:57:09.762Z,18.7
2023-05-15T11:58:15.992Z,18.6
2023-05-15T11:59:22.341Z,18.5
2023-05-15T12:00:28.565Z,18.6
2023-05-15T12:01:34.864Z,18.7
2023-05-15T12:02:41.078Z,18.7
2023-05-15T12:03:47.324Z,18.6
2023-05-15T12:04:53.594Z,18.6
2023-05-15T12:05:59.868Z,18.5
2023-05-15T12:07:06.331Z,18.4
2023-05-15T12:08:11.428Z,18.2
2023-05-15T12:09:17.748Z,18.2
2023-05-15T12:10:24.006Z,18.1
2023-05-15T12:11:30.346Z,18
2023-05-15T12:12:36.513Z,17.9
2023-05-15T12:13:42.797Z,17.7
2023-05-15T12:14:49.065Z,17.7
2023-05-15T12:15:55.335Z,17.8
2023-05-15T12:17:01.603Z,17.8
2023-05-15T12:18:07.871Z,17.8
2023-05-15T12:19:14.142Z,17.9
2023-05-15T12:20:20.413Z,17.8
2023-05-15T12:21:26.753Z,17.7
2023-05-15T12:22:33.021Z,17.7
2023-05-15T12:23:39.229Z,17.7
2023-05-15T12:24:44.543Z,17.6
2023-05-15T12:25:50.790Z,17.4
2023-05-15T12:26:57.083Z,17
2023-05-15T12:28:03.372Z,16.8
2023-05-15T12:29:09.701Z,16.6
2023-05-15T12:30:15.884Z,16.4
2023-05-15T12:31:22.173Z,16.4
2023-05-15T12:32:28.448Z,16.4
2023-05-15T12:33:34.727Z,16.3
2023-05-15T12:34:41.022Z,16.3
2023-05-15T12:35:47.303Z,16.2
2023-05-15T12:36:53.514Z,16.1
2023-05-15T12:37:59.787Z,16
2023-05-15T12:40:11.346Z,15.9
2023-05-15T12:41:17.616Z,15.6
2023-05-15T12:42:23.886Z,15.4
2023-05-15T12:43:30.209Z,15.3
2023-05-15T12:44:36.423Z,15.3
2023-05-15T12:45:42.695Z,15.3
2023-05-15T12:46:48.982Z,15.3
2023-05-15T12:47:55.273Z,14.9
2023-05-15T12:49:01.509Z,14.9
2023-05-15T12:50:07.798Z,14.7
2023-05-15T12:51:14.198Z,14.6
2023-05-15T12:52:20.340Z,14.4
2023-05-15T12:53:26.677Z,14.2
2023-05-15T12:54:31.945Z,14.1
2023-05-15T12:55:38.287Z,14.2
2023-05-15T12:56:43.472Z,14.1
2023-05-15T12:57:48.764Z,14.2
2023-05-15T12:58:55.099Z,14.3
2023-05-15T13:00:01.389Z,14.4
2023-05-15T13:01:07.585Z,14.4
2023-05-15T13:02:13.904Z,14.4
2023-05-15T13:03:20.113Z,14.5
2023-05-15T13:04:26.413Z,14.5
2023-05-15T13:05:32.704Z,14.5
2023-05-15T13:06:38.943Z,14.5
2023-05-15T13:07:45.279Z,14.5
2023-05-15T13:08:51.605Z,14.5
2023-05-15T13:09:57.847Z,14.5
2023-05-15T13:11:04.232Z,14.5
2023-05-15T13:12:09.493Z,14.5
2023-05-15T13:13:15.578Z,14.5
2023-05-15T13:14:21.996Z,14.5
2023-05-15T13:15:28.302Z,14.5
2023-05-15T13:16:34.524Z,14.5
2023-05-15T13:17:40.680Z,14.7
2023-05-15T13:18:46.105Z,14.9
2023-05-15T13:19:51.267Z,15
2023-05-15T13:20:56.543Z,15
2023-05-15T13:22:02.887Z,14.9
2023-05-15T13:23:09.160Z,15
2023-05-15T13:24:15.372Z,15.2
2023-05-15T13:25:21.703Z,15.2
2023-05-15T13:26:28.024Z,15.2
2023-05-15T13:27:34.173Z,15
2023-05-15T13:28:40.501Z,14.9
2023-05-15T13:29:46.718Z,15
2023-05-15T13:30:53.179Z,15
2023-05-15T13:31:59.344Z,15
2023-05-15T13:33:05.571Z,15
2023-05-15T13:34:11.806Z,15
2023-05-15T13:35:17.276Z,15.1
2023-05-15T13:36:23.360Z,15.2
2023-05-15T13:37:29.645Z,15.2
2023-05-15T13:38:35.950Z,15.2
2023-05-15T13:39:42.191Z,15.2
2023-05-15T13:40:48.451Z,15.2
2023-05-15T13:41:54.734Z,15.1
2023-05-15T13:43:00.031Z,15.1
2023-05-15T13:44:05.334Z,15.1
2023-05-15T13:45:10.675Z,15.1
2023-05-15T13:46:16.927Z,15.1
2023-05-15T13:47:23.165Z,15.1
2023-05-15T13:48:29.664Z,15.1
2023-05-15T13:49:35.926Z,15.1
2023-05-15T13:50:42.029Z,15.1
2023-05-15T13:51:48.395Z,15.1
2023-05-15T13:52:54.553Z,15.1
2023-05-15T13:54:00.872Z,15.2
2023-05-15T13:55:07.083Z,15.3
2023-05-15T13:56:13.375Z,15.4
2023-05-15T13:57:19.614Z,15.5
2023-05-15T13:58:25.935Z,15.6
2023-05-15T13:59:31.256Z,15.6
2023-05-15T14:00:37.472Z,15.6
2023-05-15T14:01:43.722Z,15.6
2023-05-15T14:02:50.034Z,15.4
2023-05-15T14:03:56.254Z,15.5
2023-05-15T14:05:02.542Z,15.5
2023-05-15T14:06:07.833Z,15.5
2023-05-15T14:07:13.116Z,15.6
2023-05-15T14:08:19.406Z,15.6
2023-05-15T14:09:25.656Z,15.6
2023-05-15T14:10:31.941Z,15.6
2023-05-15T14:11:38.235Z,15.6
2023-05-15T14:12:44.506Z,15.6
2023-05-15T14:13:50.832Z,15.5
2023-05-15T14:14:57.022Z,15.4
2023-05-15T14:16:03.312Z,15.5
2023-05-15T14:17:09.586Z,15.7
2023-05-15T14:18:15.852Z,16
2023-05-15T14:19:22.103Z,16.2
2023-05-15T14:20:28.380Z,16.3
2023-05-15T14:21:33.674Z,16.2
2023-05-15T14:22:39.976Z,16
2023-05-15T14:23:46.204Z,15.9
2023-05-15T14:24:52.531Z,15.9
2023-05-15T14:25:58.780Z,16.1
2023-05-15T14:27:05.036Z,16.4
2023-05-15T14:28:10.349Z,16.5
2023-05-15T14:29:15.619Z,16.5
2023-05-15T14:30:21.887Z,16.5
2023-05-15T14:31:28.153Z,16.4
2023-05-15T14:32:34.475Z,16.2
2023-05-15T14:33:40.714Z,16.1
2023-05-15T14:34:46.989Z,16
2023-05-15T14:35:53.279Z,16
2023-05-15T14:36:59.542Z,15.9
2023-05-15T14:38:05.787Z,15.8
2023-05-15T14:39:12.053Z,15.4
2023-05-15T14:40:18.336Z,15.3
2023-05-15T14:41:24.603Z,15.1
2023-05-15T14:42:30.888Z,15.1
2023-05-15T14:43:36.161Z,15.1
2023-05-15T14:44:42.440Z,15.1
2023-05-15T14:45:48.702Z,15.1
2023-05-15T14:46:54.978Z,15.1
2023-05-15T14:48:01.276Z,15
2023-05-15T14:49:07.525Z,14.9
2023-05-15T14:50:12.812Z,14.8
2023-05-15T14:51:18.145Z,14.8
2023-05-15T14:52:23.419Z,14.7
2023-05-15T14:53:29.687Z,14.7